sensor_id;sensor_type;location;lat;lon;timestamp;pressure;altitude;pressure_sealevel;temperature;humidity
10482;BME280;5288;42.334;23.876;2023-12-07T00:01:09;56594.91;;;-140.56;100.00
10482;BME280;5288;42.334;23.876;2023-12-07T00:03:36;56590.94;;;-140.56;100.00
10482;BME280;5288;42.334;23.876;2023-12-07T00:06:04;56602.81;;;-140.56;100.00
10482;BME280;5288;42.334;23.876;2023-12-07T00:08:31;56571.19;;;-140.56;100.00
10482;BME280;5288;42.334;23.876;2023-12-07T00:10:58;56596.88;;;-140.56;100.00
10482;BME280;5288;42.334;23.876;2023-12-07T00:13:27;56592.94;;;-140.56;100.00
10482;BME280;5288;42.334;23.876;2023-12-07T00:15:54;56590.94;;;-140.56;100.00
10482;BME280;5288;42.334;23.876;2023-12-07T00:18:21;56590.94;;;-140.56;100.00
10482;BME280;5288;42.334;23.876;2023-12-07T00:20:48;56614.66;;;-140.56;100.00
10482;BME280;5288;42.334;23.876;2023-12-07T00:23:16;56598.84;;;-140.56;100.00
10482;BME280;5288;42.334;23.876;2023-12-07T00:25:43;56590.94;;;-140.56;100.00
10482;BME280;5288;42.334;23.876;2023-12-07T00:28:11;56587.00;;;-140.56;100.00
10482;BME280;5288;42.334;23.876;2023-12-07T00:30:41;56575.13;;;-140.56;100.00
10482;BME280;5288;42.334;23.876;2023-12-07T00:33:09;56610.72;;;-140.56;100.00
10482;BME280;5288;42.334;23.876;2023-12-07T00:35:36;56573.16;;;-140.56;100.00
10482;BME280;5288;42.334;23.876;2023-12-07T00:38:03;56614.66;;;-140.56;100.00
10482;BME280;5288;42.334;23.876;2023-12-07T00:40:31;56590.94;;;-140.56;100.00
10482;BME280;5288;42.334;23.876;2023-12-07T00:43:02;56594.91;;;-140.56;100.00
10482;BME280;5288;42.334;23.876;2023-12-07T00:45:29;56608.75;;;-140.56;100.00
10482;BME280;5288;42.334;23.876;2023-12-07T00:47:59;56624.56;;;-140.56;100.00
10482;BME280;5288;42.334;23.876;2023-12-07T00:50:26;56569.22;;;-140.56;100.00
10482;BME280;5288;42.334;23.876;2023-12-07T00:52:53;56610.72;;;-140.56;100.00
10482;BME280;5288;42.334;23.876;2023-12-07T00:55:20;56553.41;;;-140.56;100.00
10482;BME280;5288;42.334;23.876;2023-12-07T00:57:47;56624.56;;;-140.56;100.00
10482;BME280;5288;42.334;23.876;2023-12-07T01:00:15;56581.06;;;-140.56;100.00
10482;BME280;5288;42.334;23.876;2023-12-07T01:02:42;56594.91;;;-140.56;100.00
10482;BME280;5288;42.334;23.876;2023-12-07T01:05:11;56606.75;;;-140.56;100.00
10482;BME280;5288;42.334;23.876;2023-12-07T01:07:38;56585.03;;;-140.56;100.00
10482;BME280;5288;42.334;23.876;2023-12-07T01:10:07;56588.97;;;-140.56;100.00
10482;BME280;5288;42.334;23.876;2023-12-07T01:12:34;56610.72;;;-140.56;100.00
10482;BME280;5288;42.334;23.876;2023-12-07T01:15:03;56626.53;;;-140.56;100.00
10482;BME280;5288;42.334;23.876;2023-12-07T01:17:30;56587.00;;;-140.56;100.00
10482;BME280;5288;42.334;23.876;2023-12-07T01:19:57;56606.75;;;-140.56;100.00
10482;BME280;5288;42.334;23.876;2023-12-07T01:22:26;56596.88;;;-140.56;100.00
10482;BME280;5288;42.334;23.876;2023-12-07T01:24:53;56626.53;;;-140.56;100.00
10482;BME280;5288;42.334;23.876;2023-12-07T01:27:20;56620.59;;;-140.56;100.00
10482;BME280;5288;42.334;23.876;2023-12-07T01:29:48;56590.94;;;-140.56;100.00
10482;BME280;5288;42.334;23.876;2023-12-07T01:32:15;56604.78;;;-140.56;100.00
10482;BME280;5288;42.334;23.876;2023-12-07T01:34:43;56620.59;;;-140.56;100.00
10482;BME280;5288;42.334;23.876;2023-12-07T01:37:11;56618.63;;;-140.56;100.00
10482;BME280;5288;42.334;23.876;2023-12-07T01:39:41;56592.94;;;-140.56;100.00
10482;BME280;5288;42.334;23.876;2023-12-07T01:42:08;56614.66;;;-140.56;100.00
10482;BME280;5288;42.334;23.876;2023-12-07T01:44:37;56588.97;;;-140.56;100.00
10482;BME280;5288;42.334;23.876;2023-12-07T01:47:05;56626.53;;;-140.56;100.00
10482;BME280;5288;42.334;23.876;2023-12-07T01:49:36;56624.56;;;-140.56;100.00
10482;BME280;5288;42.334;23.876;2023-12-07T01:52:04;56594.91;;;-140.56;100.00
10482;BME280;5288;42.334;23.876;2023-12-07T01:54:32;56614.66;;;-140.56;100.00
10482;BME280;5288;42.334;23.876;2023-12-07T01:57:01;56585.03;;;-140.56;100.00
10482;BME280;5288;42.334;23.876;2023-12-07T01:59:29;56559.31;;;-140.56;100.00
10482;BME280;5288;42.334;23.876;2023-12-07T02:01:56;56596.88;;;-140.56;100.00
10482;BME280;5288;42.334;23.876;2023-12-07T02:04:23;56622.56;;;-140.56;100.00
10482;BME280;5288;42.334;23.876;2023-12-07T02:06:52;56610.72;;;-140.56;100.00
10482;BME280;5288;42.334;23.876;2023-12-07T02:09:21;56618.63;;;-140.56;100.00
10482;BME280;5288;42.334;23.876;2023-12-07T02:11:48;56598.84;;;-140.56;100.00
10482;BME280;5288;42.334;23.876;2023-12-07T02:14:16;56608.75;;;-140.56;100.00
10482;BME280;5288;42.334;23.876;2023-12-07T02:16:48;56573.16;;;-140.56;100.00
10482;BME280;5288;42.334;23.876;2023-12-07T02:19:31;56614.66;;;-140.56;100.00
10482;BME280;5288;42.334;23.876;2023-12-07T02:22:10;56626.53;;;-140.56;100.00
10482;BME280;5288;42.334;23.876;2023-12-07T02:24:47;56596.88;;;-140.56;100.00
10482;BME280;5288;42.334;23.876;2023-12-07T02:27:16;56618.63;;;-140.56;100.00
10482;BME280;5288;42.334;23.876;2023-12-07T02:29:43;56610.72;;;-140.56;100.00
10482;BME280;5288;42.334;23.876;2023-12-07T02:32:11;56587.00;;;-140.56;100.00
10482;BME280;5288;42.334;23.876;2023-12-07T02:34:38;56590.94;;;-140.56;100.00
10482;BME280;5288;42.334;23.876;2023-12-07T02:37:05;56606.75;;;-140.56;100.00
10482;BME280;5288;42.334;23.876;2023-12-07T02:39:33;56594.91;;;-140.56;100.00
10482;BME280;5288;42.334;23.876;2023-12-07T02:42:00;56606.75;;;-140.56;100.00
10482;BME280;5288;42.334;23.876;2023-12-07T02:44:29;56598.84;;;-140.56;100.00
10482;BME280;5288;42.334;23.876;2023-12-07T02:46:58;56610.72;;;-140.56;100.00
10482;BME280;5288;42.334;23.876;2023-12-07T02:49:25;56592.94;;;-140.56;100.00
10482;BME280;5288;42.334;23.876;2023-12-07T02:51:52;56610.72;;;-140.56;100.00
10482;BME280;5288;42.334;23.876;2023-12-07T02:54:20;56616.66;;;-140.56;100.00
10482;BME280;5288;42.334;23.876;2023-12-07T02:56:48;56614.66;;;-140.56;100.00
10482;BME280;5288;42.334;23.876;2023-12-07T02:59:15;56616.66;;;-140.56;100.00
10482;BME280;5288;42.334;23.876;2023-12-07T03:01:44;56604.78;;;-140.56;100.00
10482;BME280;5288;42.334;23.876;2023-12-07T03:04:11;56598.84;;;-140.56;100.00
10482;BME280;5288;42.334;23.876;2023-12-07T03:06:38;56575.13;;;-140.56;100.00
10482;BME280;5288;42.334;23.876;2023-12-07T03:09:05;56618.63;;;-140.56;100.00
10482;BME280;5288;42.334;23.876;2023-12-07T03:11:33;56606.75;;;-140.56;100.00
10482;BME280;5288;42.334;23.876;2023-12-07T03:14:00;56598.84;;;-140.56;100.00
10482;BME280;5288;42.334;23.876;2023-12-07T03:16:27;56610.72;;;-140.56;100.00
10482;BME280;5288;42.334;23.876;2023-12-07T03:18:55;56596.88;;;-140.56;100.00
10482;BME280;5288;42.334;23.876;2023-12-07T03:21:23;56626.53;;;-140.56;100.00
10482;BME280;5288;42.334;23.876;2023-12-07T03:23:50;56646.28;;;-140.56;100.00
10482;BME280;5288;42.334;23.876;2023-12-07T03:26:17;56608.75;;;-140.56;100.00
10482;BME280;5288;42.334;23.876;2023-12-07T03:28:45;56606.75;;;-140.56;100.00
10482;BME280;5288;42.334;23.876;2023-12-07T03:31:12;56618.63;;;-140.56;100.00
10482;BME280;5288;42.334;23.876;2023-12-07T03:33:41;56596.88;;;-140.56;100.00
10482;BME280;5288;42.334;23.876;2023-12-07T03:36:12;56590.94;;;-140.56;100.00
10482;BME280;5288;42.334;23.876;2023-12-07T03:38:39;56618.63;;;-140.56;100.00
10482;BME280;5288;42.334;23.876;2023-12-07T03:41:06;56606.75;;;-140.56;100.00
10482;BME280;5288;42.334;23.876;2023-12-07T03:43:33;56567.22;;;-140.56;100.00
10482;BME280;5288;42.334;23.876;2023-12-07T03:46:03;56628.50;;;-140.56;100.00
10482;BME280;5288;42.334;23.876;2023-12-07T03:48:32;56585.03;;;-140.56;100.00
10482;BME280;5288;42.334;23.876;2023-12-07T03:50:59;56622.56;;;-140.56;100.00
10482;BME280;5288;42.334;23.876;2023-12-07T03:53:28;56575.13;;;-140.56;100.00
10482;BME280;5288;42.334;23.876;2023-12-07T03:55:55;56632.47;;;-140.56;100.00
10482;BME280;5288;42.334;23.876;2023-12-07T03:58:22;56628.50;;;-140.56;100.00
10482;BME280;5288;42.334;23.876;2023-12-07T04:00:50;56620.59;;;-140.56;100.00
10482;BME280;5288;42.334;23.876;2023-12-07T04:03:17;56614.66;;;-140.56;100.00
10482;BME280;5288;42.334;23.876;2023-12-07T04:05:44;56596.88;;;-140.56;100.00
10482;BME280;5288;42.334;23.876;2023-12-07T04:08:11;56606.75;;;-140.56;100.00
10482;BME280;5288;42.334;23.876;2023-12-07T04:10:40;56634.44;;;-140.56;100.00
10482;BME280;5288;42.334;23.876;2023-12-07T04:13:07;56594.91;;;-140.56;100.00
10482;BME280;5288;42.334;23.876;2023-12-07T04:15:34;56585.03;;;-140.56;100.00
10482;BME280;5288;42.334;23.876;2023-12-07T04:18:01;56575.13;;;-140.56;100.00
10482;BME280;5288;42.334;23.876;2023-12-07T04:20:28;56600.84;;;-140.56;100.00
10482;BME280;5288;42.334;23.876;2023-12-07T04:22:56;56632.47;;;-140.56;100.00
10482;BME280;5288;42.334;23.876;2023-12-07T04:25:23;56604.78;;;-140.56;100.00
10482;BME280;5288;42.334;23.876;2023-12-07T04:27:51;56606.75;;;-140.56;100.00
10482;BME280;5288;42.334;23.876;2023-12-07T04:30:19;56577.13;;;-140.56;100.00
10482;BME280;5288;42.334;23.876;2023-12-07T04:32:46;56592.94;;;-140.56;100.00
10482;BME280;5288;42.334;23.876;2023-12-07T04:35:13;56606.75;;;-140.56;100.00
10482;BME280;5288;42.334;23.876;2023-12-07T04:37:40;56616.66;;;-140.56;100.00
10482;BME280;5288;42.334;23.876;2023-12-07T04:40:08;56626.53;;;-140.56;100.00
10482;BME280;5288;42.334;23.876;2023-12-07T04:42:36;56579.09;;;-140.56;100.00
10482;BME280;5288;42.334;23.876;2023-12-07T04:45:05;56626.53;;;-140.56;100.00
10482;BME280;5288;42.334;23.876;2023-12-07T04:47:33;56588.97;;;-140.56;100.00
10482;BME280;5288;42.334;23.876;2023-12-07T04:50:00;56628.50;;;-140.56;100.00
10482;BME280;5288;42.334;23.876;2023-12-07T04:52:27;56588.97;;;-140.56;100.00
10482;BME280;5288;42.334;23.876;2023-12-07T04:54:54;56608.75;;;-140.56;100.00
10482;BME280;5288;42.334;23.876;2023-12-07T04:57:22;56600.84;;;-140.56;100.00
10482;BME280;5288;42.334;23.876;2023-12-07T04:59:49;56634.44;;;-140.56;100.00
10482;BME280;5288;42.334;23.876;2023-12-07T05:02:17;56608.75;;;-140.56;100.00
10482;BME280;5288;42.334;23.876;2023-12-07T05:04:45;56618.63;;;-140.56;100.00
10482;BME280;5288;42.334;23.876;2023-12-07T05:07:13;56622.56;;;-140.56;100.00
10482;BME280;5288;42.334;23.876;2023-12-07T05:09:41;56624.56;;;-140.56;100.00
10482;BME280;5288;42.334;23.876;2023-12-07T05:12:08;56608.75;;;-140.56;100.00
10482;BME280;5288;42.334;23.876;2023-12-07T05:14:35;56636.41;;;-140.56;100.00
10482;BME280;5288;42.334;23.876;2023-12-07T05:17:03;56632.47;;;-140.56;100.00
10482;BME280;5288;42.334;23.876;2023-12-07T05:19:32;56626.53;;;-140.56;100.00
10482;BME280;5288;42.334;23.876;2023-12-07T05:21:59;56581.06;;;-140.56;100.00
10482;BME280;5288;42.334;23.876;2023-12-07T05:24:27;56614.66;;;-140.56;100.00
10482;BME280;5288;42.334;23.876;2023-12-07T05:26:56;56606.75;;;-140.56;100.00
10482;BME280;5288;42.334;23.876;2023-12-07T05:29:23;56640.38;;;-140.56;100.00
10482;BME280;5288;42.334;23.876;2023-12-07T05:31:50;56610.72;;;-140.56;100.00
10482;BME280;5288;42.334;23.876;2023-12-07T05:34:17;56606.75;;;-140.56;100.00
10482;BME280;5288;42.334;23.876;2023-12-07T05:36:46;56571.19;;;-140.56;100.00
10482;BME280;5288;42.334;23.876;2023-12-07T05:39:13;56634.44;;;-140.56;100.00
10482;BME280;5288;42.334;23.876;2023-12-07T05:41:43;56585.03;;;-140.56;100.00
10482;BME280;5288;42.334;23.876;2023-12-07T05:44:11;56626.53;;;-140.56;100.00
10482;BME280;5288;42.334;23.876;2023-12-07T05:46:38;56622.56;;;-140.56;100.00
10482;BME280;5288;42.334;23.876;2023-12-07T05:49:09;56618.63;;;-140.56;100.00
10482;BME280;5288;42.334;23.876;2023-12-07T05:51:36;56656.19;;;-140.56;100.00
10482;BME280;5288;42.334;23.876;2023-12-07T05:54:05;56614.66;;;-140.56;100.00
10482;BME280;5288;42.334;23.876;2023-12-07T05:56:33;56642.34;;;-140.56;100.00
10482;BME280;5288;42.334;23.876;2023-12-07T05:59:00;56594.91;;;-140.56;100.00
10482;BME280;5288;42.334;23.876;2023-12-07T06:01:27;56592.94;;;-140.56;100.00
10482;BME280;5288;42.334;23.876;2023-12-07T06:03:54;56579.09;;;-140.56;100.00
10482;BME280;5288;42.334;23.876;2023-12-07T06:06:22;56598.84;;;-140.56;100.00
10482;BME280;5288;42.334;23.876;2023-12-07T06:08:49;56626.53;;;-140.56;100.00
10482;BME280;5288;42.334;23.876;2023-12-07T06:11:17;56618.63;;;-140.56;100.00
10482;BME280;5288;42.334;23.876;2023-12-07T06:13:45;56592.94;;;-140.56;100.00
10482;BME280;5288;42.334;23.876;2023-12-07T06:16:12;56620.59;;;-140.56;100.00
10482;BME280;5288;42.334;23.876;2023-12-07T06:18:40;56606.75;;;-140.56;100.00
10482;BME280;5288;42.334;23.876;2023-12-07T06:21:07;56592.94;;;-140.56;100.00
10482;BME280;5288;42.334;23.876;2023-12-07T06:23:35;56600.84;;;-140.56;100.00
10482;BME280;5288;42.334;23.876;2023-12-07T06:26:02;56579.09;;;-140.56;100.00
10482;BME280;5288;42.334;23.876;2023-12-07T06:28:32;56598.84;;;-140.56;100.00
10482;BME280;5288;42.334;23.876;2023-12-07T06:31:04;56628.50;;;-140.56;100.00
10482;BME280;5288;42.334;23.876;2023-12-07T06:33:33;56618.63;;;-140.56;100.00
10482;BME280;5288;42.334;23.876;2023-12-07T06:36:00;56588.97;;;-140.56;100.00
10482;BME280;5288;42.334;23.876;2023-12-07T06:38:28;56583.03;;;-140.56;100.00
10482;BME280;5288;42.334;23.876;2023-12-07T06:40:56;56592.94;;;-140.56;100.00
10482;BME280;5288;42.334;23.876;2023-12-07T06:43:23;56596.88;;;-140.56;100.00
10482;BME280;5288;42.334;23.876;2023-12-07T06:45:52;56614.66;;;-140.56;100.00
10482;BME280;5288;42.334;23.876;2023-12-07T06:48:20;56614.66;;;-140.56;100.00
10482;BME280;5288;42.334;23.876;2023-12-07T06:50:47;56602.81;;;-140.56;100.00
10482;BME280;5288;42.334;23.876;2023-12-07T06:53:14;56587.00;;;-140.56;100.00
10482;BME280;5288;42.334;23.876;2023-12-07T06:55:44;56588.97;;;-140.56;100.00
10482;BME280;5288;42.334;23.876;2023-12-07T06:58:11;56587.00;;;-140.56;100.00
10482;BME280;5288;42.334;23.876;2023-12-07T07:00:38;56588.97;;;-140.56;100.00
10482;BME280;5288;42.334;23.876;2023-12-07T07:03:07;56598.84;;;-140.56;100.00
10482;BME280;5288;42.334;23.876;2023-12-07T07:05:34;56618.63;;;-140.56;100.00
10482;BME280;5288;42.334;23.876;2023-12-07T07:08:02;56587.00;;;-140.56;100.00
10482;BME280;5288;42.334;23.876;2023-12-07T07:10:29;56594.91;;;-140.56;100.00
10482;BME280;5288;42.334;23.876;2023-12-07T07:12:59;56590.94;;;-140.56;100.00
10482;BME280;5288;42.334;23.876;2023-12-07T07:15:28;56600.84;;;-140.56;100.00
10482;BME280;5288;42.334;23.876;2023-12-07T07:17:55;56590.94;;;-140.56;100.00
10482;BME280;5288;42.334;23.876;2023-12-07T07:20:24;56628.50;;;-140.56;100.00
10482;BME280;5288;42.334;23.876;2023-12-07T07:22:51;56575.13;;;-140.56;100.00
10482;BME280;5288;42.334;23.876;2023-12-07T07:25:19;56587.00;;;-140.56;100.00
10482;BME280;5288;42.334;23.876;2023-12-07T07:27:46;56626.53;;;-140.56;100.00
10482;BME280;5288;42.334;23.876;2023-12-07T07:30:14;56598.84;;;-140.56;100.00
10482;BME280;5288;42.334;23.876;2023-12-07T07:32:41;56567.22;;;-140.56;100.00
10482;BME280;5288;42.334;23.876;2023-12-07T07:35:08;56596.88;;;-140.56;100.00
10482;BME280;5288;42.334;23.876;2023-12-07T07:37:39;56588.97;;;-140.56;100.00
10482;BME280;5288;42.334;23.876;2023-12-07T07:40:07;56588.97;;;-140.56;100.00
10482;BME280;5288;42.334;23.876;2023-12-07T07:42:37;56608.75;;;-140.56;100.00
10482;BME280;5288;42.334;23.876;2023-12-07T07:45:06;56588.97;;;-140.56;100.00
10482;BME280;5288;42.334;23.876;2023-12-07T07:47:34;56571.19;;;-140.56;100.00
10482;BME280;5288;42.334;23.876;2023-12-07T07:50:01;56608.75;;;-140.56;100.00
10482;BME280;5288;42.334;23.876;2023-12-07T07:52:32;56583.03;;;-140.56;100.00
10482;BME280;5288;42.334;23.876;2023-12-07T07:55:01;56557.34;;;-140.56;100.00
10482;BME280;5288;42.334;23.876;2023-12-07T07:57:29;56596.88;;;-140.56;100.00
10482;BME280;5288;42.334;23.876;2023-12-07T07:59:57;56563.28;;;-140.56;100.00
10482;BME280;5288;42.334;23.876;2023-12-07T08:02:24;56614.66;;;-140.56;100.00
10482;BME280;5288;42.334;23.876;2023-12-07T08:04:51;56571.19;;;-140.56;100.00
10482;BME280;5288;42.334;23.876;2023-12-07T08:07:19;56575.13;;;-140.56;100.00
10482;BME280;5288;42.334;23.876;2023-12-07T08:09:46;56573.16;;;-140.56;100.00
10482;BME280;5288;42.334;23.876;2023-12-07T08:12:15;56533.63;;;-140.56;100.00
10482;BME280;5288;42.334;23.876;2023-12-07T08:14:42;56571.19;;;-140.56;100.00
10482;BME280;5288;42.334;23.876;2023-12-07T08:17:11;56585.03;;;-140.56;100.00
10482;BME280;5288;42.334;23.876;2023-12-07T08:19:38;56587.00;;;-140.56;100.00
10482;BME280;5288;42.334;23.876;2023-12-07T08:22:06;56551.41;;;-140.56;100.00
10482;BME280;5288;42.334;23.876;2023-12-07T08:24:33;56581.06;;;-140.56;100.00
10482;BME280;5288;42.334;23.876;2023-12-07T08:27:01;56545.50;;;-140.56;100.00
10482;BME280;5288;42.334;23.876;2023-12-07T08:29:30;56551.41;;;-140.56;100.00
10482;BME280;5288;42.334;23.876;2023-12-07T08:31:58;56575.13;;;-140.56;100.00
10482;BME280;5288;42.334;23.876;2023-12-07T08:34:25;56569.22;;;-140.56;100.00
10482;BME280;5288;42.334;23.876;2023-12-07T08:36:52;56543.50;;;-140.56;100.00
10482;BME280;5288;42.334;23.876;2023-12-07T08:39:19;56579.09;;;-140.56;100.00
10482;BME280;5288;42.334;23.876;2023-12-07T08:41:46;56598.84;;;-140.56;100.00
10482;BME280;5288;42.334;23.876;2023-12-07T08:44:14;56539.56;;;-140.56;100.00
10482;BME280;5288;42.334;23.876;2023-12-07T08:46:42;56608.75;;;-140.56;100.00
10482;BME280;5288;42.334;23.876;2023-12-07T08:49:11;56539.56;;;-140.56;100.00
10482;BME280;5288;42.334;23.876;2023-12-07T08:51:38;56553.41;;;-140.56;100.00
10482;BME280;5288;42.334;23.876;2023-12-07T08:54:05;56533.63;;;-140.56;100.00
10482;BME280;5288;42.334;23.876;2023-12-07T08:56:32;56513.88;;;-140.56;100.00
10482;BME280;5288;42.334;23.876;2023-12-07T08:58:59;56537.59;;;-140.56;100.00
10482;BME280;5288;42.334;23.876;2023-12-07T09:01:27;56553.41;;;-140.56;100.00
10482;BME280;5288;42.334;23.876;2023-12-07T09:03:57;56573.16;;;-140.56;100.00
10482;BME280;5288;42.334;23.876;2023-12-07T09:06:24;56565.25;;;-140.56;100.00
10482;BME280;5288;42.334;23.876;2023-12-07T09:08:52;56521.78;;;-140.56;100.00
10482;BME280;5288;42.334;23.876;2023-12-07T09:11:19;56547.47;;;-140.56;100.00
10482;BME280;5288;42.334;23.876;2023-12-07T09:13:46;56523.75;;;-140.56;100.00
10482;BME280;5288;42.334;23.876;2023-12-07T09:16:14;56523.75;;;-140.56;100.00
10482;BME280;5288;42.334;23.876;2023-12-07T09:18:41;56557.34;;;-140.56;100.00
10482;BME280;5288;42.334;23.876;2023-12-07T09:21:10;56555.38;;;-140.56;100.00
10482;BME280;5288;42.334;23.876;2023-12-07T09:23:37;56545.50;;;-140.56;100.00
10482;BME280;5288;42.334;23.876;2023-12-07T09:26:04;56547.47;;;-140.56;100.00
10482;BME280;5288;42.334;23.876;2023-12-07T09:28:31;56543.50;;;-140.56;100.00
10482;BME280;5288;42.334;23.876;2023-12-07T09:31:00;56533.63;;;-140.56;100.00
10482;BME280;5288;42.334;23.876;2023-12-07T09:33:27;56529.69;;;-140.56;100.00
10482;BME280;5288;42.334;23.876;2023-12-07T09:35:54;56541.53;;;-140.56;100.00
10482;BME280;5288;42.334;23.876;2023-12-07T09:38:23;56505.97;;;-140.56;100.00
10482;BME280;5288;42.334;23.876;2023-12-07T09:40:53;56517.81;;;-140.56;100.00
10482;BME280;5288;42.334;23.876;2023-12-07T09:43:21;56519.81;;;-140.56;100.00
10482;BME280;5288;42.334;23.876;2023-12-07T09:45:48;56539.56;;;-140.56;100.00
10482;BME280;5288;42.334;23.876;2023-12-07T09:48:18;56527.72;;;-140.56;100.00
10482;BME280;5288;42.334;23.876;2023-12-07T09:50:46;56517.81;;;-140.56;100.00
10482;BME280;5288;42.334;23.876;2023-12-07T09:53:13;56531.66;;;-140.56;100.00
10482;BME280;5288;42.334;23.876;2023-12-07T09:55:42;56529.69;;;-140.56;100.00
10482;BME280;5288;42.334;23.876;2023-12-07T09:58:09;56531.66;;;-140.56;100.00
10482;BME280;5288;42.334;23.876;2023-12-07T10:00:38;56519.81;;;-140.56;100.00
10482;BME280;5288;42.334;23.876;2023-12-07T10:03:05;56553.41;;;-140.56;100.00
10482;BME280;5288;42.334;23.876;2023-12-07T10:05:53;56517.81;;;-140.56;100.00
10482;BME280;5288;42.334;23.876;2023-12-07T10:08:26;56523.75;;;-140.56;100.00
10482;BME280;5288;42.334;23.876;2023-12-07T10:11:04;56521.78;;;-140.56;100.00
10482;BME280;5288;42.334;23.876;2023-12-07T10:13:32;56537.59;;;-140.56;100.00
10482;BME280;5288;42.334;23.876;2023-12-07T10:16:10;56507.94;;;-140.56;100.00
10482;BME280;5288;42.334;23.876;2023-12-07T10:18:37;56543.50;;;-140.56;100.00
10482;BME280;5288;42.334;23.876;2023-12-07T10:21:06;56515.84;;;-140.56;100.00
10482;BME280;5288;42.334;23.876;2023-12-07T10:23:35;56507.94;;;-140.56;100.00
10482;BME280;5288;42.334;23.876;2023-12-07T10:26:05;56533.63;;;-140.56;100.00
10482;BME280;5288;42.334;23.876;2023-12-07T10:28:34;56492.13;;;-140.56;100.00
10482;BME280;5288;42.334;23.876;2023-12-07T10:31:03;56505.97;;;-140.56;100.00
10482;BME280;5288;42.334;23.876;2023-12-07T10:33:30;56511.91;;;-140.56;100.00
10482;BME280;5288;42.334;23.876;2023-12-07T10:35:57;56551.41;;;-140.56;100.00
10482;BME280;5288;42.334;23.876;2023-12-07T10:38:25;56579.09;;;-140.56;100.00
10482;BME280;5288;42.334;23.876;2023-12-07T10:41:05;56527.72;;;-140.56;100.00
10482;BME280;5288;42.334;23.876;2023-12-07T10:43:37;56545.50;;;-140.56;100.00
10482;BME280;5288;42.334;23.876;2023-12-07T10:46:05;56541.53;;;-140.56;100.00
10482;BME280;5288;42.334;23.876;2023-12-07T10:48:34;56553.41;;;-140.56;100.00
10482;BME280;5288;42.334;23.876;2023-12-07T10:51:06;56539.56;;;-140.56;100.00
10482;BME280;5288;42.334;23.876;2023-12-07T10:53:40;56579.09;;;-140.56;100.00
10482;BME280;5288;42.334;23.876;2023-12-07T10:56:13;56511.91;;;-140.56;100.00
10482;BME280;5288;42.334;23.876;2023-12-07T10:58:43;56505.97;;;-140.56;100.00
10482;BME280;5288;42.334;23.876;2023-12-07T11:01:13;56543.50;;;-140.56;100.00
10482;BME280;5288;42.334;23.876;2023-12-07T11:03:42;56555.38;;;-140.56;100.00
10482;BME280;5288;42.334;23.876;2023-12-07T11:06:10;56545.50;;;-140.56;100.00
10482;BME280;5288;42.334;23.876;2023-12-07T11:08:41;56555.38;;;-140.56;100.00
10482;BME280;5288;42.334;23.876;2023-12-07T11:11:16;56509.91;;;-140.56;100.00
10482;BME280;5288;42.334;23.876;2023-12-07T11:13:53;56551.41;;;-140.56;100.00
10482;BME280;5288;42.334;23.876;2023-12-07T11:16:29;56531.66;;;-140.56;100.00
10482;BME280;5288;42.334;23.876;2023-12-07T11:18:56;56535.59;;;-140.56;100.00
10482;BME280;5288;42.334;23.876;2023-12-07T11:21:24;56519.81;;;-140.56;100.00
10482;BME280;5288;42.334;23.876;2023-12-07T11:23:52;56527.72;;;-140.56;100.00
10482;BME280;5288;42.334;23.876;2023-12-07T11:26:22;56535.59;;;-140.56;100.00
10482;BME280;5288;42.334;23.876;2023-12-07T11:28:50;56561.31;;;-140.56;100.00
10482;BME280;5288;42.334;23.876;2023-12-07T11:31:17;56537.59;;;-140.56;100.00
10482;BME280;5288;42.334;23.876;2023-12-07T11:33:46;56541.53;;;-140.56;100.00
10482;BME280;5288;42.334;23.876;2023-12-07T11:36:14;56539.56;;;-140.56;100.00
10482;BME280;5288;42.334;23.876;2023-12-07T11:39:15;56555.38;;;-140.56;100.00
10482;BME280;5288;42.334;23.876;2023-12-07T11:41:49;56545.50;;;-140.56;100.00
10482;BME280;5288;42.334;23.876;2023-12-07T11:44:17;56521.78;;;-140.56;100.00
10482;BME280;5288;42.334;23.876;2023-12-07T11:46:45;56529.69;;;-140.56;100.00
10482;BME280;5288;42.334;23.876;2023-12-07T11:49:12;56539.56;;;-140.56;100.00
10482;BME280;5288;42.334;23.876;2023-12-07T11:51:40;56537.59;;;-140.56;100.00
10482;BME280;5288;42.334;23.876;2023-12-07T11:54:07;56592.94;;;-140.56;100.00
10482;BME280;5288;42.334;23.876;2023-12-07T11:56:37;56537.59;;;-140.56;100.00
10482;BME280;5288;42.334;23.876;2023-12-07T11:59:06;56553.41;;;-140.56;100.00
10482;BME280;5288;42.334;23.876;2023-12-07T12:01:33;56539.56;;;-140.56;100.00
10482;BME280;5288;42.334;23.876;2023-12-07T12:04:00;56555.38;;;-140.56;100.00
10482;BME280;5288;42.334;23.876;2023-12-07T12:06:29;56567.22;;;-140.56;100.00
10482;BME280;5288;42.334;23.876;2023-12-07T12:08:57;56567.22;;;-140.56;100.00
10482;BME280;5288;42.334;23.876;2023-12-07T12:11:25;56551.41;;;-140.56;100.00
10482;BME280;5288;42.334;23.876;2023-12-07T12:13:52;56594.91;;;-140.56;100.00
10482;BME280;5288;42.334;23.876;2023-12-07T12:16:21;56587.00;;;-140.56;100.00
10482;BME280;5288;42.334;23.876;2023-12-07T12:18:48;56590.94;;;-140.56;100.00
10482;BME280;5288;42.334;23.876;2023-12-07T12:21:16;56583.03;;;-140.56;100.00
10482;BME280;5288;42.334;23.876;2023-12-07T12:23:43;56577.13;;;-140.56;100.00
10482;BME280;5288;42.334;23.876;2023-12-07T12:26:11;56547.47;;;-140.56;100.00
10482;BME280;5288;42.334;23.876;2023-12-07T12:28:38;56571.19;;;-140.56;100.00
10482;BME280;5288;42.334;23.876;2023-12-07T12:31:09;56592.94;;;-140.56;100.00
10482;BME280;5288;42.334;23.876;2023-12-07T12:33:38;56588.97;;;-140.56;100.00
10482;BME280;5288;42.334;23.876;2023-12-07T12:36:07;56563.28;;;-140.56;100.00